Main page
METAR-TAF:

METAR-TAF

Airports :

Shaikh Zayed International Airport

Rahim Yar Khan, Pakistan

latitude: 28-23-02N, longitude: 70-16-47E, elevation: 83 m

METAR: missing

Time: 18:57 (13:57 UTC)

Forecast

The report was made 4 hours and 12 minutes ago, at 09:45 UTC
Forecast valid from 21 at 12 UTC to 22 at 06 UTC
Wind 10 kt from the Southwest
Visibility: 4000 m
smoke

TAF: OPRK 210945Z 2112/2206 23010KT 4000 FU NSC TN26/2201Z

Weather observations and forecasts of more than 4000 airports (METAR and TAF reports).

The available stations are represented by yellow and red dots on the map.

Hover mouse over dot to see the name of the station.

Then click to see weather observations and forecasts.

To change the map : click on the green buttons with a black cross to zoom in, on the green button with a dash to zoom out, or on the green arrows for adjacent maps.


METAR-TAF: